createdAt,value
2023-02-12T00:03:59.718Z,8.73
2023-02-12T00:09:01.365Z,7.93
2023-02-12T00:14:03.364Z,7.85
2023-02-12T00:19:05.028Z,8.43
2023-02-12T00:24:06.588Z,8.93
2023-02-12T00:29:08.099Z,8.52
2023-02-12T00:34:10.478Z,8.25
2023-02-12T00:39:12.012Z,9.10
2023-02-12T00:44:13.432Z,8.98
2023-02-12T00:49:14.974Z,9.00
2023-02-12T00:54:16.441Z,7.90
2023-02-12T00:59:17.915Z,8.93
2023-02-12T01:04:19.392Z,8.32
2023-02-12T01:09:20.958Z,8.35
2023-02-12T01:14:22.456Z,8.23
2023-02-12T01:19:24.062Z,7.90
2023-02-12T01:24:25.564Z,7.95
2023-02-12T01:29:27.008Z,8.32
2023-02-12T01:34:28.475Z,7.57
2023-02-12T01:39:29.901Z,8.45
2023-02-12T01:44:32.801Z,8.07
2023-02-12T01:49:34.205Z,8.88
2023-02-12T01:54:36.057Z,8.13
2023-02-12T01:59:38.728Z,8.82
2023-02-12T02:04:48.437Z,7.07
2023-02-12T02:09:49.946Z,8.15
2023-02-12T02:14:53.175Z,7.47
2023-02-12T02:20:03.944Z,8.10
2023-02-12T02:25:14.402Z,8.00
2023-02-12T02:30:15.883Z,9.02
2023-02-12T02:35:17.488Z,7.32
2023-02-12T02:40:23.809Z,7.45
2023-02-12T02:45:27.820Z,7.47
2023-02-12T02:50:31.578Z,6.82
2023-02-12T02:55:36.891Z,5.13
2023-02-12T03:00:40.043Z,6.80
2023-02-12T03:05:47.384Z,5.93
2023-02-12T03:10:50.598Z,6.57
2023-02-12T03:16:04.813Z,6.43
2023-02-12T03:21:10.817Z,6.22
2023-02-12T03:26:23.604Z,5.88
2023-02-12T03:31:25.022Z,6.38
2023-02-12T03:36:44.855Z,6.40
2023-02-12T03:42:00.994Z,5.60
2023-02-12T03:47:20.615Z,6.10
2023-02-12T03:52:22.151Z,6.18
2023-02-12T03:57:30.614Z,6.43
2023-02-12T04:02:32.239Z,7.45
2023-02-12T04:07:35.260Z,7.63
2023-02-12T04:12:40.357Z,7.07
2023-02-12T04:18:02.054Z,7.38
2023-02-12T04:23:22.611Z,7.68
2023-02-12T04:28:43.627Z,7.28
2023-02-12T04:33:47.747Z,7.70
2023-02-12T04:38:58.798Z,8.30
2023-02-12T04:44:13.477Z,7.50
2023-02-12T04:49:19.060Z,8.80
2023-02-12T04:54:21.556Z,8.63
2023-02-12T05:04:41.953Z,9.02
2023-02-12T05:09:43.432Z,9.10
2023-02-12T05:14:44.838Z,10.23
2023-02-12T05:19:47.764Z,9.80
2023-02-12T05:24:49.244Z,9.05
2023-02-12T05:29:50.866Z,9.20
2023-02-12T05:34:52.322Z,9.02
2023-02-12T05:39:53.964Z,9.95
2023-02-12T05:44:55.404Z,9.68
2023-02-12T05:49:56.827Z,10.25
2023-02-12T05:54:58.288Z,11.07
2023-02-12T05:59:59.797Z,10.95
2023-02-12T06:05:01.273Z,10.60
2023-02-12T06:10:02.763Z,10.80
2023-02-12T06:15:04.330Z,11.35
2023-02-12T06:20:05.984Z,11.32
2023-02-12T06:25:07.475Z,10.93
2023-02-12T06:30:09.178Z,11.15
2023-02-12T06:35:10.639Z,11.02
2023-02-12T06:40:12.267Z,11.88
2023-02-12T06:45:13.729Z,11.57
2023-02-12T06:50:15.231Z,11.82
2023-02-12T06:55:16.851Z,11.95
2023-02-12T07:00:18.687Z,13.27
2023-02-12T07:05:20.385Z,13.07
2023-02-12T07:10:21.824Z,12.93
2023-02-12T07:15:23.356Z,12.43
2023-02-12T07:20:24.802Z,14.23
2023-02-12T07:25:26.293Z,13.88
2023-02-12T07:30:27.803Z,14.82
2023-02-12T07:35:29.260Z,15.10
2023-02-12T07:40:30.689Z,14.10
2023-02-12T07:45:32.135Z,14.45
2023-02-12T07:50:33.634Z,14.68
2023-02-12T07:55:35.083Z,15.02
2023-02-12T08:00:36.530Z,13.77
2023-02-12T08:05:38.013Z,14.23
2023-02-12T08:10:39.673Z,15.60
2023-02-12T08:15:41.179Z,14.13
2023-02-12T08:20:42.677Z,14.55
2023-02-12T08:25:44.176Z,14.23
2023-02-12T08:30:45.697Z,13.75
2023-02-12T08:35:47.136Z,13.98
2023-02-12T08:40:48.616Z,14.88
2023-02-12T08:45:50.165Z,13.32
2023-02-12T08:50:51.652Z,13.60
2023-02-12T08:55:53.444Z,12.52
2023-02-12T09:00:55.164Z,12.90
2023-02-12T09:05:57.035Z,13.15
2023-02-12T09:10:58.606Z,12.40
2023-02-12T09:16:00.899Z,10.82
2023-02-12T09:21:09.628Z,11.10
2023-02-12T09:26:12.487Z,10.68
2023-02-12T09:31:15.778Z,10.40
2023-02-12T09:36:17.541Z,10.52
2023-02-12T09:41:30.884Z,10.55
2023-02-12T09:46:35.084Z,9.65
2023-02-12T09:51:38.146Z,9.40
2023-02-12T09:56:40.355Z,9.27
2023-02-12T10:01:41.826Z,8.63
2023-02-12T10:06:48.605Z,9.15
2023-02-12T10:12:03.819Z,8.95
2023-02-12T10:17:08.250Z,8.43
2023-02-12T10:22:18.805Z,8.18
2023-02-12T10:27:23.429Z,8.63
2023-02-12T10:32:27.783Z,8.27
2023-02-12T10:37:48.191Z,8.43
2023-02-12T10:42:51.755Z,8.07
2023-02-12T10:48:01.865Z,7.47
2023-02-12T10:53:06.312Z,7.53
2023-02-12T10:58:17.713Z,7.40
2023-02-12T11:03:21.477Z,7.30
2023-02-12T11:08:37.631Z,7.22
2023-02-12T11:13:41.647Z,7.00
2023-02-12T11:18:43.252Z,6.88
2023-02-12T11:23:46.246Z,7.72
2023-02-12T11:28:55.175Z,6.45
2023-02-12T11:34:08.852Z,6.13
2023-02-12T11:39:24.849Z,6.50
2023-02-12T11:44:32.138Z,6.47
2023-02-12T11:49:34.612Z,6.95
2023-02-12T11:54:41.992Z,7.13
2023-02-12T11:59:46.063Z,6.72
2023-02-12T12:04:49.685Z,6.00
2023-02-12T12:10:03.675Z,6.30
2023-02-12T12:15:34.319Z,6.00
2023-02-12T12:20:39.396Z,5.95
2023-02-12T12:25:43.820Z,6.22
2023-02-12T12:30:58.310Z,5.97
2023-02-12T12:36:18.802Z,6.32
2023-02-12T12:41:29.304Z,6.85
2023-02-12T12:46:30.826Z,6.53
2023-02-12T12:51:45.192Z,6.07
2023-02-12T12:56:49.533Z,6.72
2023-02-12T13:01:54.147Z,6.68
2023-02-12T13:06:55.601Z,7.32
2023-02-12T13:11:57.206Z,6.13
2023-02-12T13:17:07.182Z,7.35
2023-02-12T13:22:19.224Z,6.80
2023-02-12T13:27:23.064Z,7.50
2023-02-12T13:32:32.906Z,7.82
2023-02-12T13:42:49.088Z,8.05
2023-02-12T13:47:56.761Z,8.63
2023-02-12T13:53:17.072Z,8.38
2023-02-12T13:58:39.940Z,9.02
2023-02-12T14:03:41.870Z,9.15
2023-02-12T14:09:03.588Z,8.38
2023-02-12T14:14:06.279Z,9.07
2023-02-12T14:19:26.921Z,8.95
2023-02-12T14:24:37.220Z,8.40
2023-02-12T14:29:38.700Z,9.15
2023-02-12T14:34:40.224Z,10.82
2023-02-12T14:39:41.670Z,8.75
2023-02-12T14:44:46.008Z,8.25
2023-02-12T14:49:48.924Z,9.30
2023-02-12T14:54:52.573Z,9.30
2023-02-12T15:00:13.996Z,9.15
2023-02-12T15:05:18.798Z,9.25
2023-02-12T15:10:21.683Z,10.30
2023-02-12T15:15:33.722Z,10.52
2023-02-12T15:20:46.480Z,10.77
2023-02-12T15:25:50.571Z,10.82
2023-02-12T15:30:53.203Z,10.95
2023-02-12T15:35:55.371Z,10.60
2023-02-12T15:46:18.347Z,10.57
2023-02-12T15:51:39.069Z,10.95
2023-02-12T15:56:41.302Z,11.43
2023-02-12T16:01:52.075Z,11.75
2023-02-12T16:06:53.998Z,12.18
2023-02-12T16:11:56.259Z,12.15
2023-02-12T16:16:59.190Z,14.50
2023-02-12T16:22:06.230Z,13.57
2023-02-12T16:27:25.878Z,13.05
2023-02-12T16:32:37.813Z,13.05
2023-02-12T16:37:39.318Z,12.35
2023-02-12T16:42:55.969Z,12.10
2023-02-12T16:47:57.427Z,11.68
2023-02-12T16:53:02.619Z,12.95
2023-02-12T16:58:04.108Z,13.82
2023-02-12T17:03:05.673Z,14.95
2023-02-12T17:08:12.889Z,37.88
2023-02-12T17:13:14.851Z,47.20
2023-02-12T17:18:18.130Z,31.77
2023-02-12T17:23:20.057Z,20.02
2023-02-12T17:28:23.129Z,16.90
2023-02-12T17:33:24.762Z,17.20
2023-02-12T17:38:26.405Z,19.33
2023-02-12T17:43:27.846Z,18.27
2023-02-12T17:48:29.581Z,16.35
2023-02-12T17:53:31.027Z,16.23
2023-02-12T17:58:32.498Z,15.60
2023-02-12T18:03:34.207Z,16.15
2023-02-12T18:08:35.869Z,16.85
2023-02-12T18:13:37.975Z,16.50
2023-02-12T18:18:42.972Z,15.30
2023-02-12T18:24:03.298Z,14.00
2023-02-12T18:29:05.300Z,14.80
2023-02-12T18:34:06.940Z,15.52
2023-02-12T18:39:08.491Z,15.63
2023-02-12T18:44:10.071Z,22.63
2023-02-12T18:49:11.979Z,19.90
2023-02-12T18:54:13.729Z,18.73
2023-02-12T18:59:15.937Z,19.48
2023-02-12T19:04:19.627Z,18.10
2023-02-12T19:09:24.264Z,19.50
2023-02-12T19:14:26.529Z,17.73
2023-02-12T19:19:28.123Z,20.10
2023-02-12T19:24:41.058Z,20.10
2023-02-12T19:29:47.624Z,18.40
2023-02-12T19:34:49.123Z,17.75
2023-02-12T19:39:50.688Z,17.98
2023-02-12T19:44:52.175Z,17.70
2023-02-12T19:49:53.985Z,15.40
2023-02-12T19:54:55.490Z,17.77
2023-02-12T19:59:56.963Z,22.42
2023-02-12T20:04:58.487Z,24.08
2023-02-12T20:10:00.079Z,24.20
2023-02-12T20:15:04.281Z,19.35
2023-02-12T20:20:06.468Z,17.13
2023-02-12T20:25:08.261Z,16.17
2023-02-12T20:30:09.960Z,15.68
2023-02-12T20:35:14.748Z,16.52
2023-02-12T20:40:16.344Z,17.35
2023-02-12T20:45:17.885Z,16.70
2023-02-12T20:50:19.393Z,17.15
2023-02-12T20:55:21.000Z,16.13
2023-02-12T21:00:22.509Z,16.35
2023-02-12T21:05:24.057Z,18.42
2023-02-12T21:10:26.132Z,18.25
2023-02-12T21:15:28.303Z,18.13
2023-02-12T21:20:29.787Z,17.13
2023-02-12T21:25:31.206Z,17.30
2023-02-12T21:30:32.680Z,17.35
2023-02-12T21:35:35.396Z,16.23
2023-02-12T21:40:36.814Z,16.23
2023-02-12T21:50:53.709Z,15.93
2023-02-12T21:55:55.583Z,16.80
2023-02-12T22:00:57.726Z,16.33
2023-02-12T22:06:00.401Z,14.93
2023-02-12T22:11:04.424Z,14.88
2023-02-12T22:16:12.098Z,16.73
2023-02-12T22:21:14.819Z,14.82
2023-02-12T22:26:36.726Z,16.10
2023-02-12T22:31:39.171Z,17.10
2023-02-12T22:36:41.245Z,16.73
2023-02-12T22:41:42.805Z,18.13
2023-02-12T22:46:44.790Z,19.80
2023-02-12T22:51:46.280Z,18.75
2023-02-12T22:56:51.187Z,19.33
2023-02-12T23:01:52.772Z,19.85
2023-02-12T23:06:54.267Z,20.85
2023-02-12T23:11:55.754Z,21.77
2023-02-12T23:16:57.270Z,22.08
2023-02-12T23:21:58.836Z,22.55
2023-02-12T23:27:00.274Z,22.15
2023-02-12T23:32:01.888Z,22.13
2023-02-12T23:37:03.407Z,22.38
2023-02-12T23:42:05.138Z,22.42
2023-02-12T23:47:06.645Z,23.42
2023-02-12T23:52:08.202Z,21.60
2023-02-12T23:57:09.670Z,22.92
